sensor_id;sensor_type;location;lat;lon;timestamp;P1;durP1;ratioP1;P2;durP2;ratioP2
16117;SDS011;8163;50.118;5.342;2023-04-10T00:02:20;3.80;;;3.45;;
16117;SDS011;8163;50.118;5.342;2023-04-10T00:04:48;3.50;;;3.20;;
16117;SDS011;8163;50.118;5.342;2023-04-10T00:07:15;3.63;;;3.30;;
16117;SDS011;8163;50.118;5.342;2023-04-10T00:09:42;4.07;;;3.67;;
16117;SDS011;8163;50.118;5.342;2023-04-10T00:12:09;3.70;;;3.40;;
16117;SDS011;8163;50.118;5.342;2023-04-10T00:14:36;3.92;;;3.42;;
16117;SDS011;8163;50.118;5.342;2023-04-10T00:17:03;6.00;;;3.95;;
16117;SDS011;8163;50.118;5.342;2023-04-10T00:19:30;4.10;;;3.80;;
16117;SDS011;8163;50.118;5.342;2023-04-10T00:22:02;3.55;;;3.25;;
16117;SDS011;8163;50.118;5.342;2023-04-10T00:24:29;3.78;;;3.47;;
16117;SDS011;8163;50.118;5.342;2023-04-10T00:26:56;4.55;;;3.90;;
16117;SDS011;8163;50.118;5.342;2023-04-10T00:29:23;4.57;;;4.18;;
16117;SDS011;8163;50.118;5.342;2023-04-10T00:31:50;4.95;;;3.55;;
16117;SDS011;8163;50.118;5.342;2023-04-10T00:34:17;4.20;;;3.85;;
16117;SDS011;8163;50.118;5.342;2023-04-10T00:36:45;3.83;;;3.53;;
16117;SDS011;8163;50.118;5.342;2023-04-10T00:39:13;4.20;;;3.53;;
16117;SDS011;8163;50.118;5.342;2023-04-10T00:41:40;3.65;;;3.35;;
16117;SDS011;8163;50.118;5.342;2023-04-10T00:44:07;3.40;;;3.10;;
16117;SDS011;8163;50.118;5.342;2023-04-10T00:46:35;3.58;;;3.10;;
16117;SDS011;8163;50.118;5.342;2023-04-10T00:49:03;4.40;;;4.00;;
16117;SDS011;8163;50.118;5.342;2023-04-10T00:51:31;3.88;;;3.58;;
16117;SDS011;8163;50.118;5.342;2023-04-10T00:53:58;4.13;;;3.28;;
16117;SDS011;8163;50.118;5.342;2023-04-10T00:56:27;3.50;;;3.20;;
16117;SDS011;8163;50.118;5.342;2023-04-10T00:58:56;4.13;;;3.50;;
16117;SDS011;8163;50.118;5.342;2023-04-10T01:01:23;3.72;;;3.20;;
16117;SDS011;8163;50.118;5.342;2023-04-10T01:03:50;3.97;;;3.45;;
16117;SDS011;8163;50.118;5.342;2023-04-10T01:06:27;4.32;;;3.83;;
16117;SDS011;8163;50.118;5.342;2023-04-10T01:09:03;3.72;;;3.40;;
16117;SDS011;8163;50.118;5.342;2023-04-10T01:11:41;3.85;;;3.47;;
16117;SDS011;8163;50.118;5.342;2023-04-10T01:14:18;3.97;;;3.38;;
16117;SDS011;8163;50.118;5.342;2023-04-10T01:16:54;4.20;;;3.80;;
16117;SDS011;8163;50.118;5.342;2023-04-10T01:19:29;5.65;;;3.38;;
16117;SDS011;8163;50.118;5.342;2023-04-10T01:22:08;4.60;;;3.42;;
16117;SDS011;8163;50.118;5.342;2023-04-10T01:24:43;4.75;;;3.40;;
16117;SDS011;8163;50.118;5.342;2023-04-10T01:27:26;3.80;;;3.20;;
16117;SDS011;8163;50.118;5.342;2023-04-10T01:30:04;3.60;;;3.10;;
16117;SDS011;8163;50.118;5.342;2023-04-10T01:32:34;5.75;;;3.58;;
16117;SDS011;8163;50.118;5.342;2023-04-10T01:35:03;4.30;;;3.13;;
16117;SDS011;8163;50.118;5.342;2023-04-10T01:37:33;4.80;;;3.22;;
16117;SDS011;8163;50.118;5.342;2023-04-10T01:40:05;3.30;;;3.00;;
16117;SDS011;8163;50.118;5.342;2023-04-10T01:42:37;3.97;;;3.53;;
16117;SDS011;8163;50.118;5.342;2023-04-10T01:45:11;4.07;;;3.67;;
16117;SDS011;8163;50.118;5.342;2023-04-10T01:47:42;3.42;;;3.13;;
16117;SDS011;8163;50.118;5.342;2023-04-10T01:50:10;3.70;;;3.40;;
16117;SDS011;8163;50.118;5.342;2023-04-10T01:52:37;3.85;;;3.30;;
16117;SDS011;8163;50.118;5.342;2023-04-10T01:55:05;3.50;;;3.13;;
16117;SDS011;8163;50.118;5.342;2023-04-10T01:57:34;3.38;;;3.08;;
16117;SDS011;8163;50.118;5.342;2023-04-10T02:00:01;4.30;;;3.85;;
16117;SDS011;8163;50.118;5.342;2023-04-10T02:02:30;3.95;;;3.63;;
16117;SDS011;8163;50.118;5.342;2023-04-10T02:04:58;4.57;;;3.58;;
16117;SDS011;8163;50.118;5.342;2023-04-10T02:07:26;3.60;;;3.30;;
16117;SDS011;8163;50.118;5.342;2023-04-10T02:10:01;4.00;;;3.58;;
16117;SDS011;8163;50.118;5.342;2023-04-10T02:12:35;3.88;;;3.40;;
16117;SDS011;8163;50.118;5.342;2023-04-10T02:15:05;3.47;;;3.17;;
16117;SDS011;8163;50.118;5.342;2023-04-10T02:17:35;3.30;;;3.00;;
16117;SDS011;8163;50.118;5.342;2023-04-10T02:20:04;4.20;;;3.80;;
16117;SDS011;8163;50.118;5.342;2023-04-10T02:22:33;4.40;;;4.00;;
16117;SDS011;8163;50.118;5.342;2023-04-10T02:25:01;4.28;;;3.88;;
16117;SDS011;8163;50.118;5.342;2023-04-10T02:27:32;4.35;;;3.95;;
16117;SDS011;8163;50.118;5.342;2023-04-10T02:30:00;4.03;;;3.58;;
16117;SDS011;8163;50.118;5.342;2023-04-10T02:32:28;4.03;;;3.65;;
16117;SDS011;8163;50.118;5.342;2023-04-10T02:34:57;4.10;;;3.65;;
16117;SDS011;8163;50.118;5.342;2023-04-10T02:37:25;3.55;;;3.25;;
16117;SDS011;8163;50.118;5.342;2023-04-10T02:39:52;3.88;;;3.53;;
16117;SDS011;8163;50.118;5.342;2023-04-10T02:42:19;4.30;;;3.90;;
16117;SDS011;8163;50.118;5.342;2023-04-10T02:44:46;5.32;;;4.15;;
16117;SDS011;8163;50.118;5.342;2023-04-10T02:47:15;3.72;;;3.42;;
16117;SDS011;8163;50.118;5.342;2023-04-10T02:49:42;3.85;;;3.45;;
16117;SDS011;8163;50.118;5.342;2023-04-10T02:52:13;4.30;;;3.72;;
16117;SDS011;8163;50.118;5.342;2023-04-10T02:54:41;5.07;;;4.22;;
16117;SDS011;8163;50.118;5.342;2023-04-10T02:57:08;4.75;;;4.28;;
16117;SDS011;8163;50.118;5.342;2023-04-10T02:59:36;4.65;;;4.22;;
16117;SDS011;8163;50.118;5.342;2023-04-10T03:02:03;4.30;;;3.90;;
16117;SDS011;8163;50.118;5.342;2023-04-10T03:04:30;4.30;;;3.90;;
16117;SDS011;8163;50.118;5.342;2023-04-10T03:06:58;4.50;;;4.00;;
16117;SDS011;8163;50.118;5.342;2023-04-10T03:12:12;4.85;;;4.18;;
16117;SDS011;8163;50.118;5.342;2023-04-10T03:14:39;3.58;;;3.28;;
16117;SDS011;8163;50.118;5.342;2023-04-10T03:17:06;4.20;;;3.30;;
16117;SDS011;8163;50.118;5.342;2023-04-10T03:19:33;4.10;;;3.60;;
16117;SDS011;8163;50.118;5.342;2023-04-10T03:22:00;5.00;;;4.32;;
16117;SDS011;8163;50.118;5.342;2023-04-10T03:24:27;3.33;;;3.00;;
16117;SDS011;8163;50.118;5.342;2023-04-10T03:26:56;3.75;;;3.45;;
16117;SDS011;8163;50.118;5.342;2023-04-10T03:29:23;3.85;;;3.55;;
16117;SDS011;8163;50.118;5.342;2023-04-10T03:31:50;4.55;;;4.13;;
16117;SDS011;8163;50.118;5.342;2023-04-10T03:34:16;5.75;;;4.43;;
16117;SDS011;8163;50.118;5.342;2023-04-10T03:36:43;4.28;;;3.88;;
16117;SDS011;8163;50.118;5.342;2023-04-10T03:39:10;4.18;;;3.78;;
16117;SDS011;8163;50.118;5.342;2023-04-10T03:41:37;4.72;;;4.00;;
16117;SDS011;8163;50.118;5.342;2023-04-10T03:44:06;4.90;;;4.32;;
16117;SDS011;8163;50.118;5.342;2023-04-10T03:46:33;3.95;;;3.55;;
16117;SDS011;8163;50.118;5.342;2023-04-10T03:49:00;4.03;;;3.70;;
16117;SDS011;8163;50.118;5.342;2023-04-10T03:51:28;4.93;;;3.78;;
16117;SDS011;8163;50.118;5.342;2023-04-10T03:53:55;4.72;;;4.25;;
16117;SDS011;8163;50.118;5.342;2023-04-10T03:56:22;4.75;;;4.28;;
16117;SDS011;8163;50.118;5.342;2023-04-10T03:58:49;4.72;;;4.22;;
16117;SDS011;8163;50.118;5.342;2023-04-10T04:01:18;5.57;;;4.30;;
16117;SDS011;8163;50.118;5.342;2023-04-10T04:03:46;4.68;;;4.28;;
16117;SDS011;8163;50.118;5.342;2023-04-10T04:06:13;5.25;;;4.40;;
16117;SDS011;8163;50.118;5.342;2023-04-10T04:08:40;4.18;;;3.78;;
16117;SDS011;8163;50.118;5.342;2023-04-10T04:11:07;4.97;;;4.30;;
16117;SDS011;8163;50.118;5.342;2023-04-10T04:13:34;5.45;;;4.25;;
16117;SDS011;8163;50.118;5.342;2023-04-10T04:16:01;4.80;;;4.28;;
16117;SDS011;8163;50.118;5.342;2023-04-10T04:18:29;4.72;;;4.20;;
16117;SDS011;8163;50.118;5.342;2023-04-10T04:20:56;4.45;;;4.05;;
16117;SDS011;8163;50.118;5.342;2023-04-10T04:23:23;4.70;;;4.28;;
16117;SDS011;8163;50.118;5.342;2023-04-10T04:25:52;5.43;;;3.92;;
16117;SDS011;8163;50.118;5.342;2023-04-10T04:28:22;5.38;;;4.35;;
16117;SDS011;8163;50.118;5.342;2023-04-10T04:30:49;5.30;;;3.72;;
16117;SDS011;8163;50.118;5.342;2023-04-10T04:33:15;5.32;;;4.20;;
16117;SDS011;8163;50.118;5.342;2023-04-10T04:35:44;4.47;;;4.07;;
16117;SDS011;8163;50.118;5.342;2023-04-10T04:38:11;3.92;;;3.55;;
16117;SDS011;8163;50.118;5.342;2023-04-10T04:40:38;4.13;;;3.83;;
16117;SDS011;8163;50.118;5.342;2023-04-10T04:43:05;3.90;;;3.50;;
16117;SDS011;8163;50.118;5.342;2023-04-10T04:45:33;4.50;;;4.10;;
16117;SDS011;8163;50.118;5.342;2023-04-10T04:48:00;4.28;;;3.88;;
16117;SDS011;8163;50.118;5.342;2023-04-10T04:50:27;3.00;;;2.70;;
16117;SDS011;8163;50.118;5.342;2023-04-10T04:52:55;5.15;;;4.65;;
16117;SDS011;8163;50.118;5.342;2023-04-10T04:55:24;7.78;;;4.50;;
16117;SDS011;8163;50.118;5.342;2023-04-10T04:57:51;4.30;;;3.90;;
16117;SDS011;8163;50.118;5.342;2023-04-10T05:00:18;4.32;;;3.90;;
16117;SDS011;8163;50.118;5.342;2023-04-10T05:02:45;5.40;;;4.13;;
16117;SDS011;8163;50.118;5.342;2023-04-10T05:05:12;6.00;;;4.28;;
16117;SDS011;8163;50.118;5.342;2023-04-10T05:07:39;5.90;;;4.57;;
16117;SDS011;8163;50.118;5.342;2023-04-10T05:10:08;4.43;;;4.03;;
16117;SDS011;8163;50.118;5.342;2023-04-10T05:12:35;4.25;;;3.83;;
16117;SDS011;8163;50.118;5.342;2023-04-10T05:15:05;5.00;;;4.18;;
16117;SDS011;8163;50.118;5.342;2023-04-10T05:17:33;5.03;;;4.38;;
16117;SDS011;8163;50.118;5.342;2023-04-10T05:20:00;5.20;;;4.63;;
16117;SDS011;8163;50.118;5.342;2023-04-10T05:22:27;4.38;;;3.97;;
16117;SDS011;8163;50.118;5.342;2023-04-10T05:24:55;4.20;;;3.80;;
16117;SDS011;8163;50.118;5.342;2023-04-10T05:27:23;5.03;;;4.53;;
16117;SDS011;8163;50.118;5.342;2023-04-10T05:29:50;4.57;;;4.15;;
16117;SDS011;8163;50.118;5.342;2023-04-10T05:32:17;4.53;;;4.05;;
16117;SDS011;8163;50.118;5.342;2023-04-10T05:34:44;5.18;;;4.68;;
16117;SDS011;8163;50.118;5.342;2023-04-10T05:37:11;4.63;;;4.22;;
16117;SDS011;8163;50.118;5.342;2023-04-10T05:39:38;4.97;;;4.57;;
16117;SDS011;8163;50.118;5.342;2023-04-10T05:42:05;4.15;;;3.75;;
16117;SDS011;8163;50.118;5.342;2023-04-10T05:44:34;4.93;;;4.43;;
16117;SDS011;8163;50.118;5.342;2023-04-10T05:47:01;5.35;;;4.18;;
16117;SDS011;8163;50.118;5.342;2023-04-10T05:49:28;5.25;;;4.75;;
16117;SDS011;8163;50.118;5.342;2023-04-10T05:51:56;5.78;;;4.25;;
16117;SDS011;8163;50.118;5.342;2023-04-10T05:54:24;4.70;;;4.30;;
16117;SDS011;8163;50.118;5.342;2023-04-10T05:56:51;5.15;;;3.80;;
16117;SDS011;8163;50.118;5.342;2023-04-10T05:59:18;4.63;;;4.18;;
16117;SDS011;8163;50.118;5.342;2023-04-10T06:01:46;4.60;;;4.18;;
16117;SDS011;8163;50.118;5.342;2023-04-10T06:04:13;5.50;;;4.00;;
16117;SDS011;8163;50.118;5.342;2023-04-10T06:06:40;5.63;;;4.10;;
16117;SDS011;8163;50.118;5.342;2023-04-10T06:09:08;5.28;;;3.75;;
16117;SDS011;8163;50.118;5.342;2023-04-10T06:11:35;4.18;;;3.88;;
16117;SDS011;8163;50.118;5.342;2023-04-10T06:14:02;4.07;;;3.67;;
16117;SDS011;8163;50.118;5.342;2023-04-10T06:16:29;5.63;;;4.40;;
16117;SDS011;8163;50.118;5.342;2023-04-10T06:18:58;4.47;;;4.05;;
16117;SDS011;8163;50.118;5.342;2023-04-10T06:21:25;4.63;;;4.22;;
16117;SDS011;8163;50.118;5.342;2023-04-10T06:23:52;4.45;;;4.03;;
16117;SDS011;8163;50.118;5.342;2023-04-10T06:26:19;4.13;;;3.80;;
16117;SDS011;8163;50.118;5.342;2023-04-10T06:28:46;4.55;;;3.90;;
16117;SDS011;8163;50.118;5.342;2023-04-10T06:31:13;4.68;;;4.28;;
16117;SDS011;8163;50.118;5.342;2023-04-10T06:33:40;3.88;;;3.42;;
16117;SDS011;8163;50.118;5.342;2023-04-10T06:36:08;3.88;;;3.58;;
16117;SDS011;8163;50.118;5.342;2023-04-10T06:38:35;4.18;;;3.78;;
16117;SDS011;8163;50.118;5.342;2023-04-10T06:41:03;4.35;;;3.95;;
16117;SDS011;8163;50.118;5.342;2023-04-10T06:43:32;4.20;;;3.80;;
16117;SDS011;8163;50.118;5.342;2023-04-10T06:45:59;4.10;;;3.80;;
16117;SDS011;8163;50.118;5.342;2023-04-10T06:48:27;3.70;;;3.40;;
16117;SDS011;8163;50.118;5.342;2023-04-10T06:50:54;4.05;;;3.75;;
16117;SDS011;8163;50.118;5.342;2023-04-10T06:53:25;5.32;;;3.55;;
16117;SDS011;8163;50.118;5.342;2023-04-10T06:55:53;4.03;;;3.50;;
16117;SDS011;8163;50.118;5.342;2023-04-10T06:58:21;3.92;;;3.60;;
16117;SDS011;8163;50.118;5.342;2023-04-10T07:00:49;4.65;;;3.65;;
16117;SDS011;8163;50.118;5.342;2023-04-10T07:03:16;3.95;;;3.65;;
16117;SDS011;8163;50.118;5.342;2023-04-10T07:05:43;3.42;;;3.13;;
16117;SDS011;8163;50.118;5.342;2023-04-10T07:08:11;4.25;;;3.85;;
16117;SDS011;8163;50.118;5.342;2023-04-10T07:10:39;3.90;;;3.50;;
16117;SDS011;8163;50.118;5.342;2023-04-10T07:13:07;4.00;;;3.70;;
16117;SDS011;8163;50.118;5.342;2023-04-10T07:15:33;5.60;;;4.07;;
16117;SDS011;8163;50.118;5.342;2023-04-10T07:18:00;4.40;;;4.00;;
16117;SDS011;8163;50.118;5.342;2023-04-10T07:20:27;4.55;;;3.65;;
16117;SDS011;8163;50.118;5.342;2023-04-10T07:22:54;4.22;;;3.88;;
16117;SDS011;8163;50.118;5.342;2023-04-10T07:25:21;3.88;;;3.58;;
16117;SDS011;8163;50.118;5.342;2023-04-10T07:27:50;4.22;;;3.60;;
16117;SDS011;8163;50.118;5.342;2023-04-10T07:30:17;3.88;;;3.50;;
16117;SDS011;8163;50.118;5.342;2023-04-10T07:32:44;4.10;;;3.70;;
16117;SDS011;8163;50.118;5.342;2023-04-10T07:35:12;3.97;;;3.67;;
16117;SDS011;8163;50.118;5.342;2023-04-10T07:37:39;4.82;;;3.90;;
16117;SDS011;8163;50.118;5.342;2023-04-10T07:40:08;3.65;;;3.35;;
16117;SDS011;8163;50.118;5.342;2023-04-10T07:42:36;4.00;;;3.70;;
16117;SDS011;8163;50.118;5.342;2023-04-10T07:45:05;4.10;;;3.70;;
16117;SDS011;8163;50.118;5.342;2023-04-10T07:47:33;3.60;;;3.30;;
16117;SDS011;8163;50.118;5.342;2023-04-10T07:50:00;4.35;;;4.00;;
16117;SDS011;8163;50.118;5.342;2023-04-10T07:52:27;3.85;;;3.33;;
16117;SDS011;8163;50.118;5.342;2023-04-10T07:54:55;5.00;;;3.90;;
16117;SDS011;8163;50.118;5.342;2023-04-10T07:57:22;6.65;;;3.75;;
16117;SDS011;8163;50.118;5.342;2023-04-10T07:59:49;4.18;;;3.78;;
16117;SDS011;8163;50.118;5.342;2023-04-10T08:02:18;4.05;;;3.70;;
16117;SDS011;8163;50.118;5.342;2023-04-10T08:04:45;4.07;;;3.67;;
16117;SDS011;8163;50.118;5.342;2023-04-10T08:07:13;4.20;;;3.80;;
16117;SDS011;8163;50.118;5.342;2023-04-10T08:09:40;3.38;;;3.08;;
16117;SDS011;8163;50.118;5.342;2023-04-10T08:12:08;4.55;;;3.58;;
16117;SDS011;8163;50.118;5.342;2023-04-10T08:14:35;4.55;;;3.63;;
16117;SDS011;8163;50.118;5.342;2023-04-10T08:17:02;3.80;;;3.50;;
16117;SDS011;8163;50.118;5.342;2023-04-10T08:19:30;3.60;;;3.30;;
16117;SDS011;8163;50.118;5.342;2023-04-10T08:21:57;3.50;;;3.20;;
16117;SDS011;8163;50.118;5.342;2023-04-10T08:24:24;3.45;;;3.15;;
16117;SDS011;8163;50.118;5.342;2023-04-10T08:26:51;3.25;;;2.95;;
16117;SDS011;8163;50.118;5.342;2023-04-10T08:29:18;4.63;;;3.40;;
16117;SDS011;8163;50.118;5.342;2023-04-10T08:31:45;3.90;;;3.60;;
16117;SDS011;8163;50.118;5.342;2023-04-10T08:34:12;3.55;;;3.25;;
16117;SDS011;8163;50.118;5.342;2023-04-10T08:36:40;4.30;;;3.40;;
16117;SDS011;8163;50.118;5.342;2023-04-10T08:39:08;3.35;;;3.00;;
16117;SDS011;8163;50.118;5.342;2023-04-10T08:41:34;3.47;;;3.20;;
16117;SDS011;8163;50.118;5.342;2023-04-10T08:44:01;4.88;;;3.55;;
16117;SDS011;8163;50.118;5.342;2023-04-10T08:46:30;4.30;;;3.47;;
16117;SDS011;8163;50.118;5.342;2023-04-10T08:49:01;4.07;;;3.67;;
16117;SDS011;8163;50.118;5.342;2023-04-10T08:51:31;3.22;;;3.00;;
16117;SDS011;8163;50.118;5.342;2023-04-10T08:54:03;3.10;;;2.90;;
16117;SDS011;8163;50.118;5.342;2023-04-10T08:56:32;2.92;;;2.72;;
16117;SDS011;8163;50.118;5.342;2023-04-10T08:59:01;3.33;;;3.10;;
16117;SDS011;8163;50.118;5.342;2023-04-10T09:01:28;3.60;;;3.30;;
16117;SDS011;8163;50.118;5.342;2023-04-10T09:03:56;2.95;;;2.65;;
16117;SDS011;8163;50.118;5.342;2023-04-10T09:06:26;3.33;;;2.88;;
16117;SDS011;8163;50.118;5.342;2023-04-10T09:08:53;3.58;;;3.28;;
16117;SDS011;8163;50.118;5.342;2023-04-10T09:11:22;6.18;;;2.90;;
16117;SDS011;8163;50.118;5.342;2023-04-10T09:13:49;9.45;;;3.60;;
16117;SDS011;8163;50.118;5.342;2023-04-10T09:16:16;5.88;;;3.20;;
16117;SDS011;8163;50.118;5.342;2023-04-10T09:18:45;3.65;;;3.33;;
16117;SDS011;8163;50.118;5.342;2023-04-10T09:21:14;3.55;;;3.25;;
16117;SDS011;8163;50.118;5.342;2023-04-10T09:23:42;3.38;;;3.17;;
16117;SDS011;8163;50.118;5.342;2023-04-10T09:26:24;4.40;;;3.05;;
16117;SDS011;8163;50.118;5.342;2023-04-10T09:28:56;3.17;;;2.95;;
16117;SDS011;8163;50.118;5.342;2023-04-10T09:31:28;3.42;;;2.72;;
16117;SDS011;8163;50.118;5.342;2023-04-10T09:34:06;3.40;;;3.10;;
16117;SDS011;8163;50.118;5.342;2023-04-10T09:36:34;3.40;;;3.10;;
16117;SDS011;8163;50.118;5.342;2023-04-10T09:39:02;3.03;;;2.80;;
16117;SDS011;8163;50.118;5.342;2023-04-10T09:41:31;3.47;;;3.17;;
16117;SDS011;8163;50.118;5.342;2023-04-10T09:44:04;3.45;;;3.15;;
16117;SDS011;8163;50.118;5.342;2023-04-10T09:46:32;3.05;;;2.85;;
16117;SDS011;8163;50.118;5.342;2023-04-10T09:49:00;3.53;;;3.10;;
16117;SDS011;8163;50.118;5.342;2023-04-10T09:51:30;3.25;;;2.97;;
16117;SDS011;8163;50.118;5.342;2023-04-10T09:53:58;3.03;;;2.83;;
16117;SDS011;8163;50.118;5.342;2023-04-10T09:56:25;3.08;;;2.88;;
16117;SDS011;8163;50.118;5.342;2023-04-10T09:58:55;3.13;;;2.92;;
16117;SDS011;8163;50.118;5.342;2023-04-10T10:01:24;3.20;;;2.97;;
16117;SDS011;8163;50.118;5.342;2023-04-10T10:03:53;3.70;;;3.40;;
16117;SDS011;8163;50.118;5.342;2023-04-10T10:06:21;2.92;;;2.70;;
16117;SDS011;8163;50.118;5.342;2023-04-10T10:08:48;3.10;;;2.80;;
16117;SDS011;8163;50.118;5.342;2023-04-10T10:11:17;3.78;;;3.28;;
16117;SDS011;8163;50.118;5.342;2023-04-10T10:13:49;3.03;;;2.83;;
16117;SDS011;8163;50.118;5.342;2023-04-10T10:16:20;3.00;;;2.67;;
16117;SDS011;8163;50.118;5.342;2023-04-10T10:18:56;2.65;;;2.45;;
16117;SDS011;8163;50.118;5.342;2023-04-10T10:21:31;2.78;;;2.58;;
16117;SDS011;8163;50.118;5.342;2023-04-10T10:24:00;2.50;;;2.30;;
16117;SDS011;8163;50.118;5.342;2023-04-10T10:26:29;2.97;;;2.78;;
16117;SDS011;8163;50.118;5.342;2023-04-10T10:29:00;2.80;;;2.60;;
16117;SDS011;8163;50.118;5.342;2023-04-10T10:31:31;2.17;;;1.98;;
16117;SDS011;8163;50.118;5.342;2023-04-10T10:34:01;2.85;;;2.53;;
16117;SDS011;8163;50.118;5.342;2023-04-10T10:36:32;2.90;;;2.70;;
16117;SDS011;8163;50.118;5.342;2023-04-10T10:39:03;4.05;;;2.50;;
16117;SDS011;8163;50.118;5.342;2023-04-10T10:41:42;3.05;;;2.42;;
16117;SDS011;8163;50.118;5.342;2023-04-10T10:44:13;2.60;;;2.40;;
16117;SDS011;8163;50.118;5.342;2023-04-10T10:46:49;3.13;;;2.50;;
16117;SDS011;8163;50.118;5.342;2023-04-10T10:49:18;2.78;;;2.58;;
16117;SDS011;8163;50.118;5.342;2023-04-10T10:51:45;2.40;;;2.20;;
16117;SDS011;8163;50.118;5.342;2023-04-10T10:54:29;3.20;;;2.70;;
16117;SDS011;8163;50.118;5.342;2023-04-10T10:56:57;3.85;;;2.50;;
16117;SDS011;8163;50.118;5.342;2023-04-10T11:02:23;2.83;;;2.00;;
16117;SDS011;8163;50.118;5.342;2023-04-10T11:04:52;2.58;;;2.38;;
16117;SDS011;8163;50.118;5.342;2023-04-10T11:07:19;3.72;;;2.38;;
16117;SDS011;8163;50.118;5.342;2023-04-10T11:09:47;2.45;;;1.95;;
16117;SDS011;8163;50.118;5.342;2023-04-10T11:12:18;2.47;;;2.28;;
16117;SDS011;8163;50.118;5.342;2023-04-10T11:14:55;1.95;;;1.85;;
16117;SDS011;8163;50.118;5.342;2023-04-10T11:20:15;2.30;;;2.20;;
16117;SDS011;8163;50.118;5.342;2023-04-10T11:25:48;2.63;;;2.42;;
16117;SDS011;8163;50.118;5.342;2023-04-10T11:28:34;2.63;;;2.42;;
16117;SDS011;8163;50.118;5.342;2023-04-10T11:31:15;2.47;;;2.20;;
16117;SDS011;8163;50.118;5.342;2023-04-10T11:33:46;2.05;;;1.95;;
16117;SDS011;8163;50.118;5.342;2023-04-10T11:36:14;2.22;;;2.03;;
16117;SDS011;8163;50.118;5.342;2023-04-10T11:38:52;1.90;;;1.80;;
16117;SDS011;8163;50.118;5.342;2023-04-10T11:41:22;1.95;;;1.85;;
16117;SDS011;8163;50.118;5.342;2023-04-10T11:43:52;3.10;;;2.30;;
16117;SDS011;8163;50.118;5.342;2023-04-10T11:46:19;4.60;;;2.72;;
16117;SDS011;8163;50.118;5.342;2023-04-10T11:48:50;2.60;;;2.20;;
16117;SDS011;8163;50.118;5.342;2023-04-10T11:51:18;2.33;;;2.15;;
16117;SDS011;8163;50.118;5.342;2023-04-10T11:53:45;2.05;;;1.95;;
16117;SDS011;8163;50.118;5.342;2023-04-10T11:56:16;2.67;;;2.47;;
16117;SDS011;8163;50.118;5.342;2023-04-10T11:58:47;2.40;;;2.20;;
16117;SDS011;8163;50.118;5.342;2023-04-10T12:01:18;2.20;;;1.90;;
16117;SDS011;8163;50.118;5.342;2023-04-10T12:03:46;2.40;;;2.20;;
16117;SDS011;8163;50.118;5.342;2023-04-10T12:06:15;1.98;;;1.88;;
16117;SDS011;8163;50.118;5.342;2023-04-10T12:08:44;1.85;;;1.75;;
16117;SDS011;8163;50.118;5.342;2023-04-10T12:11:16;2.22;;;2.03;;
16117;SDS011;8163;50.118;5.342;2023-04-10T12:13:44;2.35;;;2.25;;
16117;SDS011;8163;50.118;5.342;2023-04-10T12:16:12;2.17;;;1.98;;
16117;SDS011;8163;50.118;5.342;2023-04-10T12:18:39;2.50;;;2.30;;
16117;SDS011;8163;50.118;5.342;2023-04-10T12:21:08;2.50;;;2.30;;
16117;SDS011;8163;50.118;5.342;2023-04-10T12:23:35;2.15;;;2.05;;
16117;SDS011;8163;50.118;5.342;2023-04-10T12:26:08;2.38;;;2.17;;
16117;SDS011;8163;50.118;5.342;2023-04-10T12:28:38;3.38;;;2.45;;
16117;SDS011;8163;50.118;5.342;2023-04-10T12:31:06;2.47;;;2.28;;
16117;SDS011;8163;50.118;5.342;2023-04-10T12:33:34;3.03;;;2.40;;
16117;SDS011;8163;50.118;5.342;2023-04-10T12:36:01;2.30;;;2.20;;
16117;SDS011;8163;50.118;5.342;2023-04-10T12:38:39;2.38;;;2.17;;
16117;SDS011;8163;50.118;5.342;2023-04-10T12:41:10;2.35;;;2.15;;
16117;SDS011;8163;50.118;5.342;2023-04-10T12:43:46;2.78;;;2.15;;
16117;SDS011;8163;50.118;5.342;2023-04-10T12:46:21;2.42;;;2.22;;
16117;SDS011;8163;50.118;5.342;2023-04-10T12:48:50;3.08;;;2.75;;
16117;SDS011;8163;50.118;5.342;2023-04-10T12:51:17;2.50;;;2.30;;
16117;SDS011;8163;50.118;5.342;2023-04-10T12:53:45;2.35;;;2.15;;
16117;SDS011;8163;50.118;5.342;2023-04-10T12:56:12;2.50;;;2.30;;
16117;SDS011;8163;50.118;5.342;2023-04-10T12:58:42;2.33;;;2.15;;
16117;SDS011;8163;50.118;5.342;2023-04-10T13:01:09;2.35;;;2.15;;
16117;SDS011;8163;50.118;5.342;2023-04-10T13:03:37;2.45;;;2.25;;
16117;SDS011;8163;50.118;5.342;2023-04-10T13:06:04;2.45;;;2.25;;
16117;SDS011;8163;50.118;5.342;2023-04-10T13:08:32;2.70;;;2.50;;
16117;SDS011;8163;50.118;5.342;2023-04-10T13:11:01;4.07;;;2.50;;
16117;SDS011;8163;50.118;5.342;2023-04-10T13:13:28;2.40;;;2.20;;
16117;SDS011;8163;50.118;5.342;2023-04-10T13:15:57;2.20;;;2.00;;
16117;SDS011;8163;50.118;5.342;2023-04-10T13:18:24;2.25;;;2.05;;
16117;SDS011;8163;50.118;5.342;2023-04-10T13:20:51;2.25;;;2.08;;
16117;SDS011;8163;50.118;5.342;2023-04-10T13:23:18;2.50;;;2.30;;
16117;SDS011;8163;50.118;5.342;2023-04-10T13:25:45;2.45;;;2.25;;
16117;SDS011;8163;50.118;5.342;2023-04-10T13:28:13;2.42;;;2.22;;
16117;SDS011;8163;50.118;5.342;2023-04-10T13:30:42;2.30;;;2.10;;
16117;SDS011;8163;50.118;5.342;2023-04-10T13:33:09;2.97;;;2.20;;
16117;SDS011;8163;50.118;5.342;2023-04-10T13:35:37;2.10;;;2.00;;
16117;SDS011;8163;50.118;5.342;2023-04-10T13:38:05;2.40;;;2.20;;
16117;SDS011;8163;50.118;5.342;2023-04-10T13:40:33;3.80;;;2.22;;
16117;SDS011;8163;50.118;5.342;2023-04-10T13:43:00;2.13;;;1.90;;
16117;SDS011;8163;50.118;5.342;2023-04-10T13:45:29;2.63;;;1.85;;
16117;SDS011;8163;50.118;5.342;2023-04-10T13:47:56;7.22;;;1.92;;
16117;SDS011;8163;50.118;5.342;2023-04-10T13:50:23;1.60;;;1.50;;
16117;SDS011;8163;50.118;5.342;2023-04-10T13:52:50;2.15;;;1.60;;
16117;SDS011;8163;50.118;5.342;2023-04-10T13:55:17;2.00;;;1.73;;
16117;SDS011;8163;50.118;5.342;2023-04-10T13:57:44;1.70;;;1.60;;
16117;SDS011;8163;50.118;5.342;2023-04-10T14:35:41;2.08;;;1.52;;
16117;SDS011;8163;50.118;5.342;2023-04-10T14:38:09;1.70;;;1.60;;
16117;SDS011;8163;50.118;5.342;2023-04-10T14:40:36;1.75;;;1.65;;
16117;SDS011;8163;50.118;5.342;2023-04-10T14:43:04;2.45;;;1.70;;
16117;SDS011;8163;50.118;5.342;2023-04-10T14:45:32;1.75;;;1.65;;
16117;SDS011;8163;50.118;5.342;2023-04-10T14:48:01;2.00;;;1.83;;
16117;SDS011;8163;50.118;5.342;2023-04-10T14:50:30;1.90;;;1.73;;
16117;SDS011;8163;50.118;5.342;2023-04-10T14:52:59;2.13;;;1.92;;
16117;SDS011;8163;50.118;5.342;2023-04-10T14:55:27;2.30;;;1.95;;
16117;SDS011;8163;50.118;5.342;2023-04-10T14:57:55;1.58;;;1.48;;
16117;SDS011;8163;50.118;5.342;2023-04-10T15:00:22;1.52;;;1.42;;
16117;SDS011;8163;50.118;5.342;2023-04-10T15:02:50;1.50;;;1.40;;
16117;SDS011;8163;50.118;5.342;2023-04-10T15:05:18;1.50;;;1.40;;
16117;SDS011;8163;50.118;5.342;2023-04-10T15:07:45;1.80;;;1.70;;
16117;SDS011;8163;50.118;5.342;2023-04-10T15:10:14;2.15;;;1.63;;
16117;SDS011;8163;50.118;5.342;2023-04-10T15:12:41;2.10;;;1.88;;
16117;SDS011;8163;50.118;5.342;2023-04-10T15:15:08;1.73;;;1.63;;
16117;SDS011;8163;50.118;5.342;2023-04-10T15:17:36;2.08;;;1.98;;
16117;SDS011;8163;50.118;5.342;2023-04-10T15:20:03;1.52;;;1.42;;
16117;SDS011;8163;50.118;5.342;2023-04-10T15:22:30;1.77;;;1.67;;
16117;SDS011;8163;50.118;5.342;2023-04-10T15:24:58;1.42;;;1.42;;
16117;SDS011;8163;50.118;5.342;2023-04-10T15:27:26;2.10;;;1.90;;
16117;SDS011;8163;50.118;5.342;2023-04-10T15:29:53;2.33;;;1.73;;
16117;SDS011;8163;50.118;5.342;2023-04-10T15:32:20;1.95;;;1.85;;
16117;SDS011;8163;50.118;5.342;2023-04-10T15:34:47;1.80;;;1.70;;
16117;SDS011;8163;50.118;5.342;2023-04-10T15:37:14;1.75;;;1.65;;
16117;SDS011;8163;50.118;5.342;2023-04-10T15:39:41;1.67;;;1.58;;
16117;SDS011;8163;50.118;5.342;2023-04-10T15:42:09;1.73;;;1.63;;
16117;SDS011;8163;50.118;5.342;2023-04-10T15:44:37;1.70;;;1.60;;
16117;SDS011;8163;50.118;5.342;2023-04-10T15:47:04;1.85;;;1.75;;
16117;SDS011;8163;50.118;5.342;2023-04-10T15:49:31;1.65;;;1.55;;
16117;SDS011;8163;50.118;5.342;2023-04-10T15:51:58;1.17;;;1.17;;
16117;SDS011;8163;50.118;5.342;2023-04-10T15:54:26;1.55;;;1.45;;
16117;SDS011;8163;50.118;5.342;2023-04-10T15:56:52;2.58;;;1.60;;